createdAt,value
2019-02-09T00:00:38.397Z,18.00
2019-02-09T00:03:10.140Z,18.00
2019-02-09T00:05:41.579Z,18.60
2019-02-09T00:08:13.677Z,18.67
2019-02-09T00:10:45.404Z,19.10
2019-02-09T00:13:16.753Z,17.90
2019-02-09T00:15:48.982Z,17.33
2019-02-09T00:18:20.264Z,19.33
2019-02-09T00:20:52.706Z,18.77
2019-02-09T00:23:23.592Z,18.10
2019-02-09T00:25:54.531Z,19.13
2019-02-09T00:28:26.714Z,18.03
2019-02-09T00:30:57.864Z,18.40
2019-02-09T00:33:29.482Z,18.37
2019-02-09T00:36:01.791Z,18.63
2019-02-09T00:38:32.643Z,17.60
2019-02-09T00:41:03.549Z,18.87
2019-02-09T00:43:35.433Z,19.57
2019-02-09T00:46:06.612Z,18.93
2019-02-09T00:48:37.341Z,18.10
2019-02-09T00:51:08.394Z,18.30
2019-02-09T00:53:39.329Z,18.83
2019-02-09T00:56:10.862Z,20.10
2019-02-09T00:58:42.058Z,20.03
2019-02-09T01:01:13.760Z,19.17
2019-02-09T01:03:45.591Z,20.33
2019-02-09T01:06:16.320Z,19.97
2019-02-09T01:08:48.081Z,19.50
2019-02-09T01:11:19.073Z,19.80
2019-02-09T01:13:49.762Z,19.80
2019-02-09T01:16:20.391Z,19.93
2019-02-09T01:18:51.887Z,20.43
2019-02-09T01:21:23.360Z,21.50
2019-02-09T01:23:54.333Z,21.87
2019-02-09T01:26:25.442Z,20.43
2019-02-09T01:28:56.863Z,21.73
2019-02-09T01:31:47.494Z,20.93
2019-02-09T01:34:22.284Z,21.40
2019-02-09T01:36:53.946Z,20.43
2019-02-09T01:39:26.273Z,21.33
2019-02-09T01:41:58.203Z,19.90
2019-02-09T01:44:29.582Z,20.97
2019-02-09T01:47:01.325Z,20.83
2019-02-09T01:49:32.477Z,21.53
2019-02-09T01:52:03.884Z,21.70
2019-02-09T01:54:35.056Z,21.30
2019-02-09T01:57:07.009Z,21.40
2019-02-09T01:59:38.245Z,19.67
2019-02-09T02:02:10.066Z,21.07
2019-02-09T02:04:41.833Z,20.47
2019-02-09T02:07:13.766Z,19.73
2019-02-09T02:09:44.899Z,19.67
2019-02-09T02:12:16.196Z,19.50
2019-02-09T02:14:47.643Z,19.20
2019-02-09T02:17:19.268Z,20.30
2019-02-09T02:19:50.419Z,20.43
2019-02-09T02:22:21.462Z,19.50
2019-02-09T02:24:52.351Z,19.07
2019-02-09T02:27:23.173Z,19.00
2019-02-09T02:29:54.665Z,18.47
2019-02-09T02:32:26.500Z,20.13
2019-02-09T02:34:57.816Z,18.50
2019-02-09T02:37:29.501Z,18.20
2019-02-09T02:40:01.267Z,18.77
2019-02-09T02:42:33.389Z,19.17
2019-02-09T02:45:04.681Z,18.13
2019-02-09T02:47:37.583Z,19.37
2019-02-09T02:50:10.914Z,19.03
2019-02-09T02:52:42.326Z,18.60
2019-02-09T02:55:16.755Z,18.93
2019-02-09T02:57:48.407Z,17.80
2019-02-09T03:00:31.843Z,18.23
2019-02-09T03:02:56.465Z,17.67
2019-02-09T03:05:28.174Z,18.17
2019-02-09T03:07:59.629Z,18.17
2019-02-09T03:10:30.902Z,17.73
2019-02-09T03:13:02.945Z,17.13
2019-02-09T03:15:34.231Z,17.63
2019-02-09T03:18:07.276Z,17.67
2019-02-09T03:20:38.862Z,18.03
2019-02-09T03:23:10.294Z,18.90
2019-02-09T03:25:41.487Z,19.13
2019-02-09T03:28:12.504Z,17.80
2019-02-09T03:30:47.707Z,16.97
2019-02-09T03:33:17.774Z,16.80
2019-02-09T03:35:49.063Z,18.30
2019-02-09T03:38:20.370Z,17.07
2019-02-09T03:40:52.175Z,19.37
2019-02-09T03:43:24.364Z,18.73
2019-02-09T03:45:55.581Z,18.70
2019-02-09T03:48:26.773Z,18.77
2019-02-09T03:50:57.519Z,18.77
2019-02-09T03:53:29.132Z,18.83
2019-02-09T03:56:00.853Z,18.73
2019-02-09T03:58:31.699Z,19.23
2019-02-09T04:01:03.162Z,18.03
2019-02-09T04:03:35.740Z,19.40
2019-02-09T04:06:07.212Z,18.83
2019-02-09T04:08:38.528Z,20.17
2019-02-09T04:11:09.702Z,20.50
2019-02-09T04:13:40.721Z,21.83
2019-02-09T04:16:13.114Z,22.07
2019-02-09T04:18:43.884Z,22.10
2019-02-09T04:21:14.670Z,20.77
2019-02-09T04:23:46.418Z,20.57
2019-02-09T04:26:17.527Z,21.23
2019-02-09T04:28:48.926Z,22.03
2019-02-09T04:31:19.883Z,21.83
2019-02-09T04:33:50.578Z,20.23
2019-02-09T04:36:21.887Z,21.10
2019-02-09T04:38:52.757Z,20.83
2019-02-09T04:41:23.983Z,20.53
2019-02-09T04:43:54.819Z,20.23
2019-02-09T04:46:27.006Z,21.77
2019-02-09T04:48:59.654Z,20.73
2019-02-09T04:51:31.464Z,20.07
2019-02-09T04:54:03.009Z,22.20
2019-02-09T04:56:35.841Z,21.20
2019-02-09T04:59:13.154Z,21.97
2019-02-09T05:01:44.853Z,19.47
2019-02-09T05:04:16.240Z,20.97
2019-02-09T05:06:48.307Z,22.50
2019-02-09T05:09:20.638Z,22.43
2019-02-09T05:11:56.052Z,22.90
2019-02-09T05:14:28.233Z,21.20
2019-02-09T05:17:00.373Z,19.70
2019-02-09T05:19:32.014Z,21.63
2019-02-09T05:22:03.856Z,20.47
2019-02-09T05:24:36.216Z,20.87
2019-02-09T05:27:08.721Z,23.37
2019-02-09T05:29:40.843Z,20.67
2019-02-09T05:32:11.372Z,20.97
2019-02-09T05:34:41.974Z,20.03
2019-02-09T05:37:12.759Z,20.03
2019-02-09T05:39:43.550Z,20.17
2019-02-09T05:42:14.363Z,17.80
2019-02-09T05:44:45.421Z,18.33
2019-02-09T05:47:16.114Z,19.17
2019-02-09T05:49:47.024Z,18.77
2019-02-09T05:52:17.840Z,19.00
2019-02-09T05:54:48.601Z,18.33
2019-02-09T05:57:19.428Z,18.73
2019-02-09T05:59:50.225Z,19.20
2019-02-09T06:02:20.751Z,19.20
2019-02-09T06:04:51.362Z,18.33
2019-02-09T06:07:22.147Z,19.77
2019-02-09T06:09:52.799Z,19.70
2019-02-09T06:12:23.404Z,18.63
2019-02-09T06:14:53.963Z,20.10
2019-02-09T06:17:24.602Z,20.33
2019-02-09T06:19:55.352Z,20.07
2019-02-09T06:22:26.057Z,19.53
2019-02-09T06:24:56.679Z,19.33
2019-02-09T06:27:27.335Z,18.47
2019-02-09T06:29:58.260Z,18.83
2019-02-09T06:32:28.907Z,18.23
2019-02-09T06:34:59.447Z,18.83
2019-02-09T06:37:30.260Z,18.60
2019-02-09T06:40:00.887Z,18.37
2019-02-09T06:42:31.556Z,19.20
2019-02-09T06:45:02.198Z,18.17
2019-02-09T06:47:32.822Z,18.07
2019-02-09T06:50:03.574Z,20.67
2019-02-09T06:52:34.159Z,18.50
2019-02-09T06:55:05.243Z,17.93
2019-02-09T06:57:35.947Z,16.63
2019-02-09T07:00:08.549Z,17.53
2019-02-09T07:02:39.096Z,18.10
2019-02-09T07:05:13.528Z,17.07
2019-02-09T07:07:44.369Z,17.33
2019-02-09T07:10:17.294Z,17.10
2019-02-09T07:12:47.816Z,18.30
2019-02-09T07:15:22.915Z,18.40
2019-02-09T07:17:53.712Z,17.63
2019-02-09T07:20:24.944Z,19.23
2019-02-09T07:22:56.166Z,16.77
2019-02-09T07:25:27.413Z,18.13
2019-02-09T07:27:58.040Z,17.27
2019-02-09T07:30:29.187Z,19.00
2019-02-09T07:33:00.388Z,17.07
2019-02-09T07:35:30.953Z,18.07
2019-02-09T07:38:01.721Z,17.90
2019-02-09T07:40:32.406Z,19.63
2019-02-09T07:43:03.144Z,18.93
2019-02-09T07:45:34.098Z,18.00
2019-02-09T07:48:05.439Z,18.93
2019-02-09T07:50:36.471Z,19.10
2019-02-09T07:53:07.267Z,18.53
2019-02-09T07:55:37.875Z,18.77
2019-02-09T07:58:08.698Z,19.37
2019-02-09T08:00:39.572Z,20.13
2019-02-09T08:03:10.070Z,20.30
2019-02-09T08:05:40.799Z,20.33
2019-02-09T08:08:11.531Z,19.40
2019-02-09T08:10:44.883Z,19.63
2019-02-09T08:13:15.562Z,20.30
2019-02-09T08:15:46.101Z,19.73
2019-02-09T08:18:16.799Z,19.10
2019-02-09T08:20:47.442Z,19.17
2019-02-09T08:23:18.149Z,17.83
2019-02-09T08:25:48.902Z,18.50
2019-02-09T08:28:19.904Z,18.40
2019-02-09T08:30:53.686Z,18.60
2019-02-09T08:33:24.347Z,19.03
2019-02-09T08:36:13.772Z,19.17
2019-02-09T08:38:44.786Z,18.80
2019-02-09T08:41:15.645Z,18.93
2019-02-09T08:43:46.542Z,18.80
2019-02-09T08:46:17.554Z,17.77
2019-02-09T08:48:48.462Z,19.40
2019-02-09T08:51:19.563Z,18.90
2019-02-09T08:53:50.156Z,18.60
2019-02-09T08:56:20.693Z,20.27
2019-02-09T08:58:51.421Z,18.53
2019-02-09T09:01:24.738Z,19.20
2019-02-09T09:03:55.286Z,20.97
2019-02-09T09:06:26.334Z,20.23
2019-02-09T09:08:57.522Z,20.33
2019-02-09T09:11:28.462Z,20.40
2019-02-09T09:13:59.750Z,21.43
2019-02-09T09:16:30.991Z,20.63
2019-02-09T09:19:01.626Z,21.53
2019-02-09T09:21:32.680Z,19.73
2019-02-09T09:24:03.917Z,19.47
2019-02-09T09:26:34.773Z,18.87
2019-02-09T09:29:05.764Z,18.20
2019-02-09T09:31:36.565Z,17.17
2019-02-09T09:34:07.721Z,18.27
2019-02-09T09:36:38.799Z,16.57
2019-02-09T09:39:10.801Z,18.17
2019-02-09T09:41:41.960Z,17.37
2019-02-09T09:44:12.989Z,17.27
2019-02-09T09:46:43.945Z,17.87
2019-02-09T09:49:14.733Z,17.40
2019-02-09T09:51:45.486Z,17.63
2019-02-09T09:54:16.196Z,17.07
2019-02-09T09:56:47.076Z,16.27
2019-02-09T09:59:18.055Z,18.03
2019-02-09T10:01:49.033Z,16.70
2019-02-09T10:04:19.750Z,17.20
2019-02-09T10:06:50.823Z,18.13
2019-02-09T10:09:21.656Z,18.33
2019-02-09T10:11:52.283Z,17.67
2019-02-09T10:14:22.903Z,19.53
2019-02-09T10:16:53.859Z,19.37
2019-02-09T10:19:24.543Z,19.37
2019-02-09T10:21:57.290Z,19.60
2019-02-09T10:24:28.369Z,20.00
2019-02-09T10:26:59.404Z,19.70
2019-02-09T10:29:30.030Z,21.13
2019-02-09T10:32:00.629Z,21.33
2019-02-09T10:34:31.151Z,21.13
2019-02-09T10:37:02.032Z,22.00
2019-02-09T10:39:32.825Z,21.77
2019-02-09T10:42:03.752Z,20.53
2019-02-09T10:44:34.587Z,21.30
2019-02-09T10:47:05.526Z,23.20
2019-02-09T10:49:36.390Z,21.33
2019-02-09T10:52:07.005Z,23.53
2019-02-09T10:54:37.616Z,21.47
2019-02-09T10:57:08.509Z,20.87
2019-02-09T10:59:39.235Z,21.73
2019-02-09T11:02:10.384Z,22.37
2019-02-09T11:04:41.149Z,21.30
2019-02-09T11:07:12.121Z,21.47
2019-02-09T11:09:43.092Z,22.00
2019-02-09T11:12:13.600Z,22.17
2019-02-09T11:14:44.729Z,22.70
2019-02-09T11:17:15.734Z,22.53
2019-02-09T11:19:46.790Z,22.87
2019-02-09T11:22:17.881Z,24.80
2019-02-09T11:24:50.420Z,23.37
2019-02-09T11:27:22.907Z,22.23
2019-02-09T11:29:53.845Z,23.07
2019-02-09T11:32:24.361Z,23.23
2019-02-09T11:34:54.999Z,23.67
2019-02-09T11:37:25.816Z,22.30
2019-02-09T11:39:56.467Z,23.57
2019-02-09T11:42:27.094Z,23.37
2019-02-09T11:44:57.719Z,23.40
2019-02-09T11:47:31.541Z,22.70
2019-02-09T11:50:02.386Z,23.70
2019-02-09T11:52:32.964Z,25.57
2019-02-09T11:55:03.901Z,23.50
2019-02-09T11:57:34.922Z,24.53
2019-02-09T12:00:09.603Z,22.43
2019-02-09T12:02:40.489Z,23.83
2019-02-09T12:05:11.336Z,24.13
2019-02-09T12:07:42.656Z,23.97
2019-02-09T12:10:14.099Z,24.97
2019-02-09T12:12:44.841Z,23.00
2019-02-09T12:15:19.102Z,24.83
2019-02-09T12:17:50.136Z,25.07
2019-02-09T12:20:21.429Z,24.27
2019-02-09T12:22:52.528Z,23.40
2019-02-09T12:25:26.153Z,24.40
2019-02-09T12:27:57.057Z,24.43
2019-02-09T12:30:31.254Z,24.00
2019-02-09T12:33:01.963Z,24.37
2019-02-09T12:35:32.780Z,24.17
2019-02-09T12:38:03.723Z,26.53
2019-02-09T12:40:35.106Z,24.93
2019-02-09T12:43:07.025Z,25.23
2019-02-09T12:45:39.609Z,24.73
2019-02-09T12:48:11.136Z,24.47
2019-02-09T12:50:42.182Z,22.90
2019-02-09T12:53:12.984Z,22.93
2019-02-09T12:55:43.816Z,22.60
2019-02-09T12:58:14.702Z,24.73
2019-02-09T13:00:45.802Z,21.67
2019-02-09T13:03:22.209Z,19.93
2019-02-09T13:05:53.165Z,19.80
2019-02-09T13:08:24.194Z,18.90
2019-02-09T13:10:55.659Z,19.07
2019-02-09T13:13:26.432Z,23.13
2019-02-09T13:15:57.154Z,22.57
2019-02-09T13:18:28.043Z,21.83
2019-02-09T13:20:59.014Z,22.90
2019-02-09T13:23:32.324Z,20.80
2019-02-09T13:26:03.444Z,21.57
2019-02-09T13:28:34.363Z,21.87
2019-02-09T13:31:05.682Z,20.60
2019-02-09T13:33:39.041Z,22.87
2019-02-09T13:36:08.883Z,21.43
2019-02-09T13:38:39.951Z,19.90
2019-02-09T13:41:11.091Z,19.07
2019-02-09T13:43:41.835Z,19.57
2019-02-09T13:46:12.718Z,23.33
2019-02-09T13:48:43.601Z,20.57
2019-02-09T13:51:14.575Z,21.33
2019-02-09T13:53:45.307Z,21.50
2019-02-09T13:56:16.204Z,21.80
2019-02-09T13:59:06.062Z,22.20
2019-02-09T14:01:36.789Z,19.10
2019-02-09T14:04:07.415Z,19.87
2019-02-09T14:06:38.301Z,21.27
2019-02-09T14:09:09.592Z,21.33
2019-02-09T14:11:40.581Z,20.20
2019-02-09T14:14:11.304Z,20.13
2019-02-09T14:16:41.921Z,17.90
2019-02-09T14:19:12.667Z,18.03
2019-02-09T14:21:43.442Z,17.03
2019-02-09T14:24:14.409Z,17.77
2019-02-09T14:26:45.375Z,17.37
2019-02-09T14:29:17.986Z,19.73
2019-02-09T14:31:48.767Z,20.53
2019-02-09T14:34:19.437Z,20.20
2019-02-09T14:36:50.525Z,19.60
2019-02-09T14:39:21.300Z,20.50
2019-02-09T14:41:52.239Z,19.43
2019-02-09T14:44:23.075Z,20.63
2019-02-09T14:46:53.961Z,18.03
2019-02-09T14:49:24.996Z,19.40
2019-02-09T14:51:55.629Z,19.67
2019-02-09T14:54:26.241Z,19.90
2019-02-09T14:56:57.219Z,19.07
2019-02-09T14:59:28.063Z,19.50
2019-02-09T15:01:58.870Z,20.73
2019-02-09T15:04:29.619Z,21.20
2019-02-09T15:07:00.772Z,22.93
2019-02-09T15:09:31.682Z,22.53
2019-02-09T15:12:02.288Z,20.70
2019-02-09T15:14:33.069Z,22.07
2019-02-09T15:17:05.733Z,22.07
2019-02-09T15:19:39.367Z,21.87
2019-02-09T15:22:10.350Z,23.97
2019-02-09T15:24:41.327Z,22.07
2019-02-09T15:27:12.189Z,21.27
2019-02-09T15:29:42.822Z,23.30
2019-02-09T15:32:13.803Z,22.50
2019-02-09T15:34:44.585Z,22.20
2019-02-09T15:37:15.468Z,23.33
2019-02-09T15:39:46.314Z,22.60
2019-02-09T15:42:17.385Z,22.10
2019-02-09T15:44:48.183Z,21.90
2019-02-09T15:47:18.946Z,25.23
2019-02-09T15:49:49.711Z,22.77
2019-02-09T15:52:20.287Z,25.23
2019-02-09T15:54:50.874Z,23.77
2019-02-09T15:57:21.851Z,26.63
2019-02-09T15:59:52.766Z,26.70
2019-02-09T16:02:23.372Z,27.27
2019-02-09T16:04:54.050Z,26.77
2019-02-09T16:07:24.885Z,28.03
2019-02-09T16:09:55.526Z,28.43
2019-02-09T16:12:26.137Z,27.50
2019-02-09T16:14:56.638Z,29.27
2019-02-09T16:17:27.455Z,27.93
2019-02-09T16:19:58.512Z,28.97
2019-02-09T16:22:29.275Z,29.93
2019-02-09T16:25:00.028Z,28.07
2019-02-09T16:27:30.840Z,28.87
2019-02-09T16:30:01.754Z,28.87
2019-02-09T16:32:32.331Z,28.43
2019-02-09T16:35:03.109Z,28.93
2019-02-09T16:37:33.857Z,30.60
2019-02-09T16:40:05.480Z,30.80
2019-02-09T16:42:36.645Z,31.60
2019-02-09T16:45:10.764Z,32.10
2019-02-09T16:47:42.044Z,34.57
2019-02-09T16:50:13.181Z,33.03
2019-02-09T16:52:44.028Z,33.97
2019-02-09T16:55:16.334Z,30.93
2019-02-09T16:57:47.318Z,32.73
2019-02-09T17:00:25.696Z,31.97
2019-02-09T17:02:56.653Z,32.17
2019-02-09T17:05:27.369Z,30.93
2019-02-09T17:07:58.262Z,31.70
2019-02-09T17:10:29.155Z,31.57
2019-02-09T17:13:00.077Z,31.77
2019-02-09T17:15:32.234Z,31.30
2019-02-09T17:18:03.096Z,30.03
2019-02-09T17:20:33.848Z,31.23
2019-02-09T17:23:04.678Z,29.87
2019-02-09T17:25:36.869Z,29.67
2019-02-09T17:28:08.310Z,29.67
2019-02-09T17:30:39.705Z,32.30
2019-02-09T17:33:10.399Z,32.57
2019-02-09T17:35:41.054Z,29.40
2019-02-09T17:38:11.842Z,31.27
2019-02-09T17:40:47.778Z,30.27
2019-02-09T17:43:18.661Z,33.27
2019-02-09T17:45:58.786Z,33.87
2019-02-09T17:48:29.636Z,32.23
2019-02-09T17:51:00.456Z,31.97
2019-02-09T17:53:31.250Z,33.83
2019-02-09T17:56:01.992Z,32.53
2019-02-09T17:58:32.874Z,31.43
2019-02-09T18:01:12.898Z,33.30
2019-02-09T18:03:43.815Z,30.00
2019-02-09T18:06:15.114Z,29.97
2019-02-09T18:08:48.439Z,30.47
2019-02-09T18:11:19.388Z,30.63
2019-02-09T18:13:49.978Z,32.03
2019-02-09T18:16:20.806Z,31.33
2019-02-09T18:18:51.698Z,29.37
2019-02-09T18:21:22.573Z,28.27
2019-02-09T18:23:53.684Z,37.70
2019-02-09T18:26:29.785Z,37.23
2019-02-09T18:29:01.164Z,38.97
2019-02-09T18:31:31.865Z,47.27
2019-02-09T18:34:02.422Z,43.57
2019-02-09T18:36:32.991Z,57.07
2019-02-09T18:39:05.292Z,48.57
2019-02-09T18:41:36.188Z,54.83
2019-02-09T18:44:06.996Z,56.27
2019-02-09T18:46:37.561Z,82.90
2019-02-09T18:49:08.405Z,77.30
2019-02-09T18:51:39.309Z,68.70
2019-02-09T18:54:09.847Z,68.67
2019-02-09T18:56:40.378Z,62.23
2019-02-09T18:59:11.257Z,58.30
2019-02-09T19:01:42.066Z,54.90
2019-02-09T19:04:12.667Z,50.27
2019-02-09T19:06:43.533Z,48.67
2019-02-09T19:09:14.450Z,48.43
2019-02-09T19:11:46.209Z,46.00
2019-02-09T19:14:17.599Z,45.17
2019-02-09T19:16:48.976Z,42.30
2019-02-09T19:19:20.047Z,39.87
2019-02-09T19:21:50.912Z,42.03
2019-02-09T19:24:21.487Z,38.93
2019-02-09T19:26:52.374Z,40.57
2019-02-09T19:29:23.074Z,36.10
2019-02-09T19:31:53.534Z,36.63
2019-02-09T19:34:24.093Z,33.77
2019-02-09T19:36:54.719Z,33.03
2019-02-09T19:39:25.469Z,34.43
2019-02-09T19:41:56.268Z,30.20
2019-02-09T19:44:27.085Z,31.70
2019-02-09T19:46:57.977Z,33.87
2019-02-09T19:49:28.627Z,31.73
2019-02-09T19:51:59.413Z,34.77
2019-02-09T19:54:29.906Z,34.03
2019-02-09T19:57:03.939Z,34.13
2019-02-09T19:59:34.481Z,36.13
2019-02-09T20:02:05.803Z,34.60
2019-02-09T20:04:36.594Z,34.63
2019-02-09T20:07:07.436Z,36.53
2019-02-09T20:09:37.949Z,33.27
2019-02-09T20:12:08.566Z,33.57
2019-02-09T20:14:39.195Z,32.97
2019-02-09T20:17:09.757Z,32.10
2019-02-09T20:19:40.403Z,31.60
2019-02-09T20:22:10.941Z,32.13
2019-02-09T20:24:41.530Z,31.67
2019-02-09T20:27:12.240Z,32.03
2019-02-09T20:29:43.110Z,30.10
2019-02-09T20:32:13.693Z,30.37
2019-02-09T20:34:44.287Z,33.03
2019-02-09T20:37:14.891Z,31.03
2019-02-09T20:39:47.013Z,32.07
2019-02-09T20:42:18.170Z,31.83
2019-02-09T20:44:48.762Z,32.57
2019-02-09T20:47:19.379Z,31.33
2019-02-09T20:49:50.169Z,31.70
2019-02-09T20:52:22.247Z,32.90
2019-02-09T20:54:52.861Z,32.17
2019-02-09T20:57:23.547Z,31.77
2019-02-09T20:59:54.245Z,30.90
2019-02-09T21:02:24.847Z,31.93
2019-02-09T21:04:55.477Z,33.77
2019-02-09T21:07:26.231Z,33.73
2019-02-09T21:09:56.870Z,34.93
2019-02-09T21:12:30.497Z,32.63
2019-02-09T21:15:01.118Z,31.53
2019-02-09T21:17:31.698Z,32.50
2019-02-09T21:20:02.459Z,33.00
2019-02-09T21:22:35.522Z,33.93
2019-02-09T21:25:26.483Z,34.77
2019-02-09T21:27:57.432Z,38.63
2019-02-09T21:30:28.805Z,33.93
2019-02-09T21:32:59.605Z,42.53
2019-02-09T21:35:30.700Z,40.37
2019-02-09T21:38:01.330Z,43.17
2019-02-09T21:40:32.441Z,36.43
2019-02-09T21:43:03.360Z,35.70
2019-02-09T21:45:34.183Z,41.40
2019-02-09T21:48:05.625Z,53.17
2019-02-09T21:50:37.175Z,44.83
2019-02-09T21:53:08.580Z,43.53
2019-02-09T21:55:39.560Z,44.37
2019-02-09T21:58:10.824Z,45.63
2019-02-09T22:00:43.269Z,46.50
2019-02-09T22:03:14.922Z,48.40
2019-02-09T22:05:51.695Z,47.93
2019-02-09T22:08:19.847Z,48.37
2019-02-09T22:10:51.018Z,46.73
2019-02-09T22:13:21.657Z,45.63
2019-02-09T22:15:52.405Z,46.00
2019-02-09T22:18:23.154Z,43.43
2019-02-09T22:20:54.008Z,45.10
2019-02-09T22:23:24.888Z,41.40
2019-02-09T22:25:57.242Z,44.73
2019-02-09T22:28:28.668Z,45.43
2019-02-09T22:31:00.878Z,44.13
2019-02-09T22:33:32.485Z,42.23
2019-02-09T22:36:03.124Z,41.93
2019-02-09T22:38:34.919Z,43.73
2019-02-09T22:41:07.058Z,43.47
2019-02-09T22:43:38.998Z,43.30
2019-02-09T22:46:10.040Z,44.40
2019-02-09T22:48:42.186Z,42.77
2019-02-09T22:51:14.722Z,41.27
2019-02-09T22:53:47.230Z,43.47
2019-02-09T22:56:19.042Z,41.13
2019-02-09T22:58:51.354Z,43.70
2019-02-09T23:01:37.333Z,48.00
2019-02-09T23:04:32.873Z,46.93
2019-02-09T23:07:13.023Z,46.67
2019-02-09T23:09:45.271Z,45.87
2019-02-09T23:12:17.862Z,44.37
2019-02-09T23:14:48.993Z,43.50
2019-02-09T23:17:20.734Z,43.30
2019-02-09T23:19:52.385Z,42.70
2019-02-09T23:22:23.561Z,40.80
2019-02-09T23:24:54.872Z,42.70
2019-02-09T23:27:26.933Z,42.63
2019-02-09T23:29:58.545Z,42.37
2019-02-09T23:32:30.297Z,41.93
2019-02-09T23:35:02.325Z,40.33
2019-02-09T23:37:35.068Z,40.27
2019-02-09T23:40:06.827Z,41.43
2019-02-09T23:42:37.962Z,41.73
2019-02-09T23:45:09.950Z,42.63
2019-02-09T23:47:42.898Z,42.90
2019-02-09T23:50:15.060Z,39.13
2019-02-09T23:52:46.841Z,41.70
2019-02-09T23:55:18.700Z,40.70
2019-02-09T23:57:50.591Z,42.97
